Time;durP1;ratioP1;P1;durP2;ratioP2;P2;SDS_P1;SDS_P2;PMS_P1;PMS_P2;Temp;Humidity;BMP_temperature;BMP_pressure;BME280_temperature;BME280_humidity;BME280_pressure;Samples;Min_cycle;Max_cycle;Signal;HPM_P1;HPM_P2
2021/09/17 00:02:21;;;;;;;5.25;4.45;;;15.50;99.90;;;;;;4973847;28;20204;-75
2021/09/17 00:04:49;;;;;;;4.47;4.00;;;15.20;99.90;;;;;;4974051;28;20225;-75
2021/09/17 00:07:16;;;;;;;4.70;4.13;;;15.20;99.90;;;;;;4973615;28;20213;-76
2021/09/17 00:09:43;;;;;;;4.78;4.13;;;15.20;99.90;;;;;;4973797;28;20233;-76
2021/09/17 00:12:10;;;;;;;5.13;4.32;;;15.30;99.90;;;;;;4973640;28;20302;-74
2021/09/17 00:14:37;;;;;;;6.00;4.38;;;15.20;99.90;;;;;;4973662;28;20239;-75
2021/09/17 00:17:04;;;;;;;4.60;3.75;;;15.20;99.90;;;;;;4973862;28;20303;-76
2021/09/17 00:19:31;;;;;;;5.53;4.68;;;15.30;99.90;;;;;;4976678;28;20241;-75
2021/09/17 00:21:59;;;;;;;5.78;4.72;;;15.40;99.90;;;;;;4975696;28;20296;-76
2021/09/17 00:24:26;;;;;;;7.50;4.72;;;15.40;99.90;;;;;;4976292;28;20775;-73
2021/09/17 00:26:53;;;;;;;7.60;5.40;;;15.40;99.90;;;;;;4975377;28;20299;-77
2021/09/17 00:29:20;;;;;;;6.43;4.90;;;15.40;99.90;;;;;;4975967;28;20235;-77
2021/09/17 00:31:46;;;;;;;7.35;5.18;;;15.40;99.90;;;;;;4974945;28;20304;-77
2021/09/17 00:34:13;;;;;;;8.20;5.78;;;15.40;99.90;;;;;;4974915;28;20236;-77
2021/09/17 00:36:40;;;;;;;6.38;5.05;;;15.40;99.90;;;;;;4975180;28;20307;-77
2021/09/17 00:39:12;;;;;;;5.43;4.30;;;15.40;99.90;;;;;;4975142;28;20211;-77
2021/09/17 00:41:40;;;;;;;4.88;4.22;;;15.50;99.90;;;;;;4974870;28;20205;-77
2021/09/17 00:44:07;;;;;;;5.25;4.43;;;15.60;99.90;;;;;;4974711;28;20761;-77
2021/09/17 00:46:33;;;;;;;6.70;5.05;;;15.50;99.90;;;;;;4974574;28;20219;-78
2021/09/17 00:49:00;;;;;;;7.25;5.65;;;15.50;99.90;;;;;;4975024;28;20225;-77
2021/09/17 00:51:27;;;;;;;10.38;6.32;;;15.40;99.90;;;;;;4975413;28;20209;-77
2021/09/17 00:53:54;;;;;;;7.05;5.68;;;15.30;99.90;;;;;;4975094;28;20235;-77
2021/09/17 00:56:22;;;;;;;7.55;5.47;;;15.20;99.90;;;;;;4975304;28;20280;-77
2021/09/17 00:58:49;;;;;;;6.07;5.03;;;15.20;99.90;;;;;;4974952;28;20218;-77
2021/09/17 01:01:16;;;;;;;6.70;4.80;;;15.30;99.90;;;;;;4974538;28;20213;-77
2021/09/17 01:03:43;;;;;;;6.65;4.82;;;15.40;99.90;;;;;;4975187;28;20233;-77
2021/09/17 01:06:10;;;;;;;4.82;4.32;;;15.50;99.90;;;;;;4975451;28;20232;-77
2021/09/17 01:08:38;;;;;;;6.35;4.53;;;15.50;99.90;;;;;;4978526;28;20252;-77
2021/09/17 01:11:06;;;;;;;5.85;5.03;;;15.60;99.90;;;;;;4978348;28;20299;-78
2021/09/17 01:13:36;;;;;;;5.70;4.80;;;15.60;99.90;;;;;;4978476;28;20235;-77
2021/09/17 01:16:03;;;;;;;6.75;5.28;;;15.60;99.90;;;;;;4978264;28;20243;-78
2021/09/17 01:18:29;;;;;;;5.20;4.32;;;15.70;99.90;;;;;;4978185;28;20217;-77
2021/09/17 01:20:58;;;;;;;5.50;4.38;;;15.70;99.90;;;;;;4978047;28;20298;-77
2021/09/17 01:23:25;;;;;;;6.57;4.55;;;15.70;99.90;;;;;;4977851;28;20267;-77
2021/09/17 01:25:52;;;;;;;5.00;4.25;;;15.80;99.90;;;;;;4977959;28;20205;-77
2021/09/17 01:28:22;;;;;;;6.82;4.72;;;15.80;99.90;;;;;;4978475;28;20296;-77
2021/09/17 01:30:49;;;;;;;5.45;4.40;;;15.70;99.90;;;;;;4978745;28;20560;-77
2021/09/17 01:33:16;;;;;;;9.32;4.90;;;15.60;99.90;;;;;;4977365;28;20244;-77
2021/09/17 01:35:43;;;;;;;6.10;4.60;;;15.70;99.90;;;;;;4978262;28;20205;-77
2021/09/17 01:38:11;;;;;;;6.28;4.25;;;15.80;99.90;;;;;;4977428;28;20208;-77
2021/09/17 01:40:38;;;;;;;4.35;3.95;;;15.80;99.90;;;;;;4978745;28;20300;-77
2021/09/17 01:43:05;;;;;;;5.10;4.57;;;15.60;99.90;;;;;;4978005;28;20300;-77
2021/09/17 01:45:32;;;;;;;6.25;5.00;;;15.50;99.90;;;;;;4978926;28;20235;-77
2021/09/17 01:47:58;;;;;;;4.82;4.30;;;15.40;99.90;;;;;;4978195;28;20277;-77
2021/09/17 01:50:25;;;;;;;6.22;4.38;;;15.30;99.90;;;;;;4978060;28;20319;-77
2021/09/17 01:52:52;;;;;;;9.13;4.68;;;15.40;99.90;;;;;;4977203;28;20213;-77
2021/09/17 01:55:23;;;;;;;5.20;4.70;;;15.50;99.90;;;;;;4978876;28;20299;-77
2021/09/17 01:57:51;;;;;;;4.32;3.80;;;15.50;99.90;;;;;;4977957;28;20734;-77
2021/09/17 02:00:18;;;;;;;6.00;4.47;;;15.50;99.90;;;;;;4977951;28;20292;-77
2021/09/17 02:02:45;;;;;;;7.35;4.60;;;15.50;99.90;;;;;;4976706;28;20215;-77
2021/09/17 02:05:12;;;;;;;7.35;5.38;;;15.60;99.90;;;;;;4977027;28;20295;-77
2021/09/17 02:07:39;;;;;;;6.32;4.85;;;15.60;99.90;;;;;;4977269;28;20220;-77
2021/09/17 02:10:08;;;;;;;5.05;4.38;;;15.60;99.90;;;;;;4977169;28;20239;-77
2021/09/17 02:12:36;;;;;;;8.25;5.50;;;15.60;99.90;;;;;;4977241;28;20210;-77
2021/09/17 02:15:03;;;;;;;5.15;4.65;;;15.50;99.90;;;;;;4977639;28;20300;-77
2021/09/17 02:17:31;;;;;;;7.13;5.00;;;15.60;99.90;;;;;;4977336;28;20303;-77
2021/09/17 02:19:58;;;;;;;7.28;5.85;;;15.60;99.90;;;;;;4976017;28;20517;-77
2021/09/17 02:22:25;;;;;;;6.30;4.57;;;15.70;99.90;;;;;;4976935;28;20212;-77
2021/09/17 02:24:52;;;;;;;5.93;4.40;;;15.70;99.90;;;;;;4976973;28;20319;-77
2021/09/17 02:27:19;;;;;;;7.95;4.60;;;15.80;99.90;;;;;;4977515;28;20215;-77
2021/09/17 02:29:47;;;;;;;5.65;4.53;;;15.80;99.90;;;;;;4977523;28;20233;-77
2021/09/17 02:32:14;;;;;;;6.93;4.30;;;15.90;99.90;;;;;;4977188;28;20300;-77
2021/09/17 02:34:41;;;;;;;4.60;4.20;;;15.90;99.90;;;;;;4977193;28;20264;-77
2021/09/17 02:37:08;;;;;;;6.78;5.13;;;15.80;99.90;;;;;;4977594;28;20208;-77
2021/09/17 02:39:35;;;;;;;5.20;4.10;;;15.70;99.90;;;;;;4976734;28;20300;-77
2021/09/17 02:42:04;;;;;;;6.97;4.65;;;15.70;99.90;;;;;;4976429;28;20217;-77
2021/09/17 02:44:31;;;;;;;6.30;5.25;;;15.60;99.90;;;;;;4977378;28;20232;-77
2021/09/17 02:46:59;;;;;;;6.38;4.88;;;15.50;99.90;;;;;;4976559;28;20219;-77
2021/09/17 02:49:26;;;;;;;5.53;4.38;;;15.60;99.90;;;;;;4976298;28;20224;-77
2021/09/17 02:51:53;;;;;;;5.75;4.25;;;15.60;99.90;;;;;;4976557;28;20292;-77
2021/09/17 02:54:19;;;;;;;5.97;4.75;;;15.50;99.90;;;;;;4979676;28;20270;-77
2021/09/17 02:56:46;;;;;;;4.70;4.00;;;15.40;99.90;;;;;;4977569;28;20294;-76
2021/09/17 02:59:13;;;;;;;3.95;3.55;;;15.50;99.90;;;;;;4976190;28;20711;-77
2021/09/17 03:01:40;;;;;;;4.85;4.20;;;15.50;99.90;;;;;;4975668;28;20751;-77
2021/09/17 03:04:08;;;;;;;5.40;4.40;;;15.60;99.90;;;;;;4976563;28;20320;-77
2021/09/17 03:06:35;;;;;;;5.88;4.30;;;15.50;99.90;;;;;;4976223;28;20316;-77
2021/09/17 03:09:01;;;;;;;4.65;4.05;;;15.50;99.90;;;;;;4976214;28;20211;-77
2021/09/17 03:11:29;;;;;;;5.88;4.30;;;15.50;99.90;;;;;;4976128;28;20236;-77
2021/09/17 03:13:56;;;;;;;5.40;4.15;;;15.60;99.90;;;;;;4975726;28;20576;-77
2021/09/17 03:16:22;;;;;;;5.72;4.80;;;15.60;99.90;;;;;;4975875;28;20215;-77
2021/09/17 03:18:49;;;;;;;5.40;4.18;;;15.50;99.90;;;;;;4976557;28;20299;-78
2021/09/17 03:21:17;;;;;;;9.70;4.60;;;15.50;99.90;;;;;;4976000;28;20204;-77
2021/09/17 03:23:44;;;;;;;5.50;4.35;;;15.60;99.90;;;;;;4976781;28;20327;-77
2021/09/17 03:26:11;;;;;;;5.90;4.63;;;15.70;99.90;;;;;;4976882;28;20215;-77
2021/09/17 03:28:38;;;;;;;6.05;4.70;;;15.70;99.90;;;;;;4976072;28;20237;-77
2021/09/17 03:31:05;;;;;;;6.30;4.65;;;15.70;99.90;;;;;;4975598;28;20243;-77
2021/09/17 03:33:32;;;;;;;5.60;4.75;;;15.70;99.90;;;;;;4975559;28;20249;-77
2021/09/17 03:35:58;;;;;;;5.80;4.95;;;15.70;99.90;;;;;;4975775;28;20616;-77
2021/09/17 03:38:27;;;;;;;4.60;4.20;;;15.70;99.90;;;;;;4975827;28;20300;-77
2021/09/17 03:40:54;;;;;;;7.82;5.40;;;15.60;99.90;;;;;;4975583;28;20296;-77
2021/09/17 03:43:20;;;;;;;7.15;4.88;;;15.50;99.90;;;;;;4975174;28;20229;-77
2021/09/17 03:45:47;;;;;;;7.03;5.50;;;15.60;99.90;;;;;;4976532;28;20247;-77
2021/09/17 03:48:14;;;;;;;4.93;4.25;;;15.70;99.90;;;;;;4975918;28;20290;-77
2021/09/17 03:50:41;;;;;;;5.40;4.70;;;15.70;99.90;;;;;;4975556;28;20232;-77
2021/09/17 03:53:08;;;;;;;5.00;3.85;;;15.70;99.90;;;;;;4975288;28;20224;-77
2021/09/17 03:55:37;;;;;;;6.88;3.65;;;15.70;99.90;;;;;;4975367;28;20550;-77
2021/09/17 03:58:04;;;;;;;4.15;3.65;;;15.70;99.90;;;;;;4975049;28;20224;-77
2021/09/17 04:00:31;;;;;;;3.72;3.33;;;15.70;99.90;;;;;;4975195;28;20205;-77
2021/09/17 04:02:58;;;;;;;4.47;3.83;;;15.70;99.90;;;;;;4975784;28;20231;-77
2021/09/17 04:05:25;;;;;;;4.38;3.92;;;15.70;99.90;;;;;;4976365;28;20718;-77
2021/09/17 04:07:52;;;;;;;3.92;3.53;;;15.80;99.90;;;;;;4976189;28;20219;-77
2021/09/17 04:10:20;;;;;;;4.80;4.30;;;15.70;99.90;;;;;;4976147;28;20233;-77
2021/09/17 04:12:48;;;;;;;4.50;4.05;;;15.50;99.90;;;;;;4975748;28;20652;-77
2021/09/17 04:15:15;;;;;;;4.57;4.00;;;15.40;99.90;;;;;;4976555;28;20211;-77
2021/09/17 04:17:43;;;;;;;4.85;4.07;;;15.40;99.90;;;;;;4975839;28;20216;-77
2021/09/17 04:20:10;;;;;;;6.10;4.80;;;15.30;99.90;;;;;;4976412;28;20299;-77
2021/09/17 04:22:38;;;;;;;5.40;4.57;;;15.30;99.90;;;;;;4975519;28;20244;-77
2021/09/17 04:25:06;;;;;;;5.45;4.88;;;15.10;99.90;;;;;;4975917;28;20555;-77
2021/09/17 04:27:33;;;;;;;5.80;4.53;;;15.00;99.90;;;;;;4975853;28;20295;-76
2021/09/17 04:30:03;;;;;;;5.70;4.68;;;15.10;99.90;;;;;;4975595;28;20224;-77
2021/09/17 04:32:30;;;;;;;7.10;4.40;;;15.10;99.90;;;;;;4975680;28;20205;-78
2021/09/17 04:34:56;;;;;;;5.97;4.90;;;15.10;99.90;;;;;;4975204;28;20320;-77
2021/09/17 04:37:23;;;;;;;5.28;4.50;;;15.20;99.90;;;;;;4975718;28;20205;-77
2021/09/17 04:39:50;;;;;;;5.50;4.88;;;15.30;99.90;;;;;;4975555;28;20209;-77
2021/09/17 04:42:17;;;;;;;5.03;4.45;;;15.40;99.90;;;;;;4976988;28;20213;-77
2021/09/17 04:44:43;;;;;;;4.60;4.10;;;15.40;99.90;;;;;;4979467;28;20225;-77
2021/09/17 04:47:12;;;;;;;4.53;3.70;;;15.40;99.90;;;;;;4979996;28;20211;-77
2021/09/17 04:49:38;;;;;;;9.32;4.60;;;15.50;99.90;;;;;;4978966;28;20652;-77
2021/09/17 04:52:05;;;;;;;4.93;4.40;;;15.40;99.90;;;;;;4979040;28;20303;-77
2021/09/17 04:54:32;;;;;;;5.65;3.90;;;15.40;99.90;;;;;;4979187;28;20315;-77
2021/09/17 04:57:00;;;;;;;9.02;5.20;;;15.50;99.90;;;;;;4979343;28;20295;-77
2021/09/17 04:59:27;;;;;;;6.28;5.10;;;15.50;99.90;;;;;;4979303;28;20203;-77
2021/09/17 05:01:54;;;;;;;8.40;5.00;;;15.30;99.90;;;;;;4979007;28;20213;-77
2021/09/17 05:04:22;;;;;;;6.63;5.13;;;15.20;99.90;;;;;;4980598;28;20296;-77
2021/09/17 05:06:49;;;;;;;6.38;4.75;;;15.10;99.90;;;;;;4979553;28;20304;-77
2021/09/17 05:09:16;;;;;;;6.85;4.60;;;15.20;99.90;;;;;;4979900;28;20747;-77
2021/09/17 05:11:43;;;;;;;5.80;4.53;;;15.20;99.90;;;;;;4978837;28;20241;-77
2021/09/17 05:14:09;;;;;;;6.57;5.53;;;15.20;99.90;;;;;;4979346;28;20314;-77
2021/09/17 05:16:37;;;;;;;6.05;4.30;;;15.20;99.90;;;;;;4979128;28;20682;-77
2021/09/17 05:19:04;;;;;;;6.75;5.25;;;15.30;99.90;;;;;;4979054;28;20655;-76
2021/09/17 05:21:32;;;;;;;6.53;5.32;;;15.30;99.90;;;;;;4978907;28;20208;-77
2021/09/17 05:23:59;;;;;;;6.10;4.68;;;15.20;99.90;;;;;;4978680;28;20653;-76
2021/09/17 05:26:26;;;;;;;6.35;4.90;;;15.20;99.90;;;;;;4978603;28;20219;-77
2021/09/17 05:28:52;;;;;;;5.50;4.25;;;15.20;99.90;;;;;;4978806;28;20217;-77
2021/09/17 05:31:19;;;;;;;6.22;4.75;;;15.30;99.90;;;;;;4979844;28;20327;-76
2021/09/17 05:33:46;;;;;;;5.13;4.63;;;15.30;99.90;;;;;;4980378;28;20346;-77
2021/09/17 05:36:13;;;;;;;9.20;6.15;;;15.20;99.90;;;;;;4980590;28;20239;-77
2021/09/17 05:38:41;;;;;;;7.07;5.50;;;15.20;99.90;;;;;;4980222;28;20213;-77
2021/09/17 05:41:08;;;;;;;5.10;4.60;;;15.20;99.90;;;;;;4980002;28;20253;-78
2021/09/17 05:43:35;;;;;;;6.95;5.10;;;15.20;99.90;;;;;;4978725;28;20260;-76
2021/09/17 05:46:02;;;;;;;8.95;5.25;;;15.20;99.90;;;;;;4979704;28;20686;-76
2021/09/17 05:48:29;;;;;;;6.00;4.97;;;15.20;99.90;;;;;;4980030;28;20623;-77
2021/09/17 05:50:56;;;;;;;8.23;5.07;;;15.20;99.90;;;;;;4979932;28;20235;-76
2021/09/17 05:53:23;;;;;;;6.47;4.78;;;15.20;99.90;;;;;;4978605;28;20240;-76
2021/09/17 05:55:51;;;;;;;6.45;4.95;;;15.20;99.90;;;;;;4980150;28;20305;-77
2021/09/17 05:58:18;;;;;;;10.80;7.88;;;15.20;99.90;;;;;;4979053;28;20304;-77
2021/09/17 06:00:45;;;;;;;9.48;6.88;;;15.30;99.90;;;;;;4978866;28;20243;-77
2021/09/17 06:03:11;;;;;;;7.40;5.65;;;15.30;99.90;;;;;;4978312;28;20233;-77
2021/09/17 06:05:38;;;;;;;6.72;5.22;;;15.40;99.90;;;;;;4978784;28;20213;-78
2021/09/17 06:08:05;;;;;;;5.82;5.15;;;15.50;99.90;;;;;;4978553;28;20300;-78
2021/09/17 06:10:32;;;;;;;5.55;4.97;;;15.50;99.90;;;;;;4978353;28;20224;-77
2021/09/17 06:13:00;;;;;;;6.78;5.13;;;15.60;99.90;;;;;;4977861;28;20315;-77
2021/09/17 06:15:27;;;;;;;6.68;4.85;;;15.60;99.90;;;;;;4978415;28;20290;-77
2021/09/17 06:17:54;;;;;;;5.32;4.50;;;15.60;99.90;;;;;;4978559;28;20202;-77
2021/09/17 06:20:21;;;;;;;5.07;4.57;;;15.80;99.90;;;;;;4978201;28;20607;-77
2021/09/17 06:22:53;;;;;;;6.88;5.03;;;15.90;99.90;;;;;;4977332;28;20210;-77
2021/09/17 06:25:20;;;;;;;6.30;4.25;;;15.80;99.90;;;;;;4978195;28;20189;-76
2021/09/17 06:27:48;;;;;;;5.70;4.72;;;15.70;99.90;;;;;;4977989;28;20209;-77
2021/09/17 06:30:17;;;;;;;6.45;5.00;;;15.60;99.90;;;;;;4977607;28;20234;-77
2021/09/17 06:32:44;;;;;;;5.78;4.88;;;15.70;99.90;;;;;;4977392;28;20308;-77
2021/09/17 06:35:11;;;;;;;6.97;4.68;;;15.70;99.90;;;;;;4978127;28;20304;-77
2021/09/17 06:37:45;;;;;;;6.25;4.80;;;15.70;99.90;;;;;;4977767;28;20213;-77
2021/09/17 06:40:12;;;;;;;6.85;5.10;;;15.70;99.90;;;;;;4977264;28;20223;-77
2021/09/17 06:42:39;;;;;;;5.85;5.28;;;15.80;99.90;;;;;;4977213;28;20296;-77
2021/09/17 06:45:07;;;;;;;7.18;5.82;;;15.90;99.90;;;;;;4977690;28;20297;-77
2021/09/17 06:47:42;;;;;;;6.70;6.00;;;16.00;99.90;;;;;;4976967;28;20224;-76
2021/09/17 06:50:10;;;;;;;8.20;6.25;;;15.90;99.90;;;;;;4977572;28;20320;-77
2021/09/17 06:52:37;;;;;;;8.30;6.15;;;15.90;99.90;;;;;;4976895;28;20296;-77
2021/09/17 06:55:04;;;;;;;8.20;5.55;;;15.90;99.90;;;;;;4976658;28;20308;-76
2021/09/17 06:57:31;;;;;;;5.85;5.25;;;16.00;99.90;;;;;;4977142;28;20224;-77
2021/09/17 06:59:58;;;;;;;6.90;5.43;;;16.10;99.90;;;;;;4976862;28;20682;-78
2021/09/17 07:02:25;;;;;;;9.57;6.15;;;16.00;99.90;;;;;;4976257;28;20215;-77
2021/09/17 07:04:53;;;;;;;7.65;5.75;;;16.00;99.90;;;;;;4976166;28;20232;-76
2021/09/17 07:07:20;;;;;;;7.68;5.93;;;16.00;99.90;;;;;;4976156;28;20209;-77
2021/09/17 07:09:47;;;;;;;8.30;6.25;;;16.20;99.90;;;;;;4976020;28;20206;-76
2021/09/17 07:12:13;;;;;;;9.85;5.75;;;16.30;99.90;;;;;;4976172;28;20320;-77
2021/09/17 07:14:40;;;;;;;7.05;5.70;;;16.40;99.90;;;;;;4976466;28;20317;-77
2021/09/17 07:17:07;;;;;;;8.45;5.82;;;16.40;99.90;;;;;;4975905;28;20241;-77
2021/09/17 07:19:34;;;;;;;7.13;5.57;;;16.40;99.90;;;;;;4976161;28;20317;-77
2021/09/17 07:22:05;;;;;;;6.65;4.90;;;16.50;99.90;;;;;;4975750;28;20198;-77
2021/09/17 07:24:32;;;;;;;8.15;6.18;;;16.50;99.90;;;;;;4976132;28;20688;-77
2021/09/17 07:26:59;;;;;;;5.90;5.30;;;16.70;99.90;;;;;;4976262;28;20210;-77
2021/09/17 07:29:26;;;;;;;5.90;5.28;;;16.80;99.90;;;;;;4976392;28;20292;-77
2021/09/17 07:31:53;;;;;;;8.38;5.68;;;16.80;99.90;;;;;;4975630;28;20704;-77
2021/09/17 07:34:19;;;;;;;8.02;5.40;;;16.90;99.90;;;;;;4976302;28;20317;-76
2021/09/17 07:36:46;;;;;;;6.38;5.40;;;17.00;99.90;;;;;;4976362;28;20222;-77
2021/09/17 07:39:14;;;;;;;7.15;6.03;;;17.00;99.90;;;;;;4976442;28;20728;-76
2021/09/17 07:41:41;;;;;;;11.70;6.57;;;17.10;99.90;;;;;;4975980;28;20206;-77
2021/09/17 07:44:08;;;;;;;8.07;6.00;;;17.20;99.90;;;;;;4976181;28;20222;-76
2021/09/17 07:46:35;;;;;;;9.93;6.68;;;17.20;99.90;;;;;;4976481;28;20285;-77
2021/09/17 07:49:02;;;;;;;8.65;7.05;;;17.20;99.90;;;;;;4975850;28;20346;-77
2021/09/17 07:51:28;;;;;;;7.55;6.10;;;17.30;99.90;;;;;;4975389;28;20228;-77
2021/09/17 07:53:55;;;;;;;8.05;6.45;;;17.40;99.90;;;;;;4975757;28;20321;-77
2021/09/17 07:56:23;;;;;;;8.88;5.90;;;17.40;99.90;;;;;;4976012;28;20301;-77
2021/09/17 07:58:50;;;;;;;8.52;6.65;;;17.40;99.90;;;;;;4975717;28;20296;-77
2021/09/17 08:01:17;;;;;;;8.57;6.03;;;17.50;99.90;;;;;;4975377;28;20235;-78
2021/09/17 08:03:44;;;;;;;11.40;6.65;;;17.60;99.90;;;;;;4976706;28;20313;-77
2021/09/17 08:06:13;;;;;;;9.27;6.20;;;17.70;99.90;;;;;;4975535;28;20216;-78
2021/09/17 08:08:40;;;;;;;7.30;6.10;;;17.70;99.90;;;;;;4975804;28;20218;-78
2021/09/17 08:11:06;;;;;;;7.15;6.18;;;17.80;99.90;;;;;;4975992;28;20232;-78
2021/09/17 08:13:35;;;;;;;10.93;7.10;;;17.80;99.90;;;;;;4975685;28;20316;-77
2021/09/17 08:16:01;;;;;;;8.15;6.30;;;17.80;99.90;;;;;;4974861;28;20241;-77
2021/09/17 08:18:28;;;;;;;9.32;6.78;;;17.90;99.90;;;;;;4975969;28;20556;-77
2021/09/17 08:20:58;;;;;;;7.57;6.20;;;18.00;99.90;;;;;;4975782;28;20297;-77
2021/09/17 08:23:26;;;;;;;8.90;5.85;;;18.00;99.90;;;;;;4976059;28;20293;-77
2021/09/17 08:25:54;;;;;;;8.32;6.38;;;18.20;99.90;;;;;;4976540;28;20213;-77
2021/09/17 08:28:22;;;;;;;9.27;6.73;;;18.20;99.90;;;;;;4976702;28;20281;-77
2021/09/17 08:30:50;;;;;;;9.67;6.93;;;18.30;99.90;;;;;;4976564;28;20456;-77
2021/09/17 08:33:18;;;;;;;7.57;6.27;;;18.40;99.90;;;;;;4976559;28;20489;-77
2021/09/17 08:35:45;;;;;;;7.05;6.32;;;18.40;99.90;;;;;;4976821;28;20525;-77
2021/09/17 08:38:12;;;;;;;8.70;7.10;;;18.40;99.90;;;;;;4976808;28;20300;-77
2021/09/17 08:40:40;;;;;;;7.28;5.85;;;18.30;99.90;;;;;;4976268;28;20728;-77
2021/09/17 08:43:06;;;;;;;7.35;6.22;;;18.30;99.90;;;;;;4975831;28;20238;-77
2021/09/17 08:45:33;;;;;;;7.72;6.32;;;18.40;99.90;;;;;;4976689;28;20210;-77
2021/09/17 08:48:02;;;;;;;8.60;6.72;;;18.40;99.90;;;;;;4976730;28;20590;-77
2021/09/17 08:50:30;;;;;;;10.67;7.10;;;18.50;99.90;;;;;;4976523;28;20229;-77
2021/09/17 08:52:56;;;;;;;9.95;6.75;;;18.50;99.90;;;;;;4975996;28;20573;-77
2021/09/17 08:55:23;;;;;;;7.57;6.10;;;18.60;99.90;;;;;;4977194;28;20265;-77
2021/09/17 08:57:51;;;;;;;9.07;7.10;;;18.70;99.90;;;;;;4976637;28;20270;-77
2021/09/17 09:00:39;;;;;;;7.65;6.75;;;18.70;99.90;;;;;;4976138;28;20243;-77
2021/09/17 09:03:09;;;;;;;8.35;6.97;;;18.60;99.90;;;;;;4975472;28;20313;-77
2021/09/17 09:05:38;;;;;;;8.45;6.75;;;18.50;99.90;;;;;;4976071;28;20534;-77
2021/09/17 09:08:06;;;;;;;8.00;6.67;;;18.50;99.90;;;;;;4975579;28;20717;-77
2021/09/17 09:10:33;;;;;;;6.80;6.13;;;18.50;99.90;;;;;;4976481;28;20457;-77
2021/09/17 09:13:03;;;;;;;11.50;7.23;;;18.60;99.90;;;;;;4976090;28;20580;-77
2021/09/17 09:15:31;;;;;;;9.10;7.00;;;18.70;99.90;;;;;;4976681;28;20460;-77
2021/09/17 09:18:02;;;;;;;8.30;7.13;;;18.80;99.90;;;;;;4976623;28;20482;-77
2021/09/17 09:20:31;;;;;;;8.50;6.80;;;18.80;99.90;;;;;;4976792;28;20484;-77
2021/09/17 09:23:08;;;;;;;11.00;7.57;;;18.90;99.90;;;;;;4976280;28;20446;-75
2021/09/17 09:25:36;;;;;;;10.37;6.93;;;18.80;99.90;;;;;;4976103;28;20517;-77
2021/09/17 09:28:13;;;;;;;8.90;7.23;;;18.90;99.90;;;;;;4977013;28;20446;-77
2021/09/17 09:30:40;;;;;;;10.90;8.17;;;18.90;99.90;;;;;;4979735;28;20455;-77
2021/09/17 09:33:31;;;;;;;11.97;7.83;;;18.90;99.90;;;;;;4978918;28;20491;-77
2021/09/17 09:36:02;;;;;;;10.13;8.00;;;19.00;99.90;;;;;;4980064;28;20480;-77
2021/09/17 09:38:38;;;;;;;9.77;8.50;;;19.10;99.90;;;;;;4979704;28;20446;-77
2021/09/17 09:41:08;;;;;;;10.20;8.17;;;19.20;99.90;;;;;;4979855;28;20444;-77
2021/09/17 09:43:36;;;;;;;13.00;9.77;;;19.40;99.90;;;;;;4978895;28;20483;-77
2021/09/17 09:46:23;;;;;;;9.67;7.70;;;19.50;99.90;;;;;;4978850;28;20444;-77
2021/09/17 09:49:09;;;;;;;9.83;7.20;;;19.60;99.90;;;;;;4979571;28;20530;-77
2021/09/17 09:51:40;;;;;;;8.90;7.53;;;19.70;99.90;;;;;;4978419;28;20490;-77
2021/09/17 09:54:08;;;;;;;9.43;7.70;;;19.80;99.90;;;;;;4978424;28;20978;-77
2021/09/17 09:56:36;;;;;;;10.70;6.97;;;19.90;99.90;;;;;;4978720;28;20538;-77
2021/09/17 09:59:05;;;;;;;7.30;6.50;;;20.00;99.90;;;;;;4979149;28;20502;-77
2021/09/17 10:01:35;;;;;;;9.13;6.50;;;19.90;99.90;;;;;;4978295;28;20460;-78
2021/09/17 10:04:03;;;;;;;9.50;7.87;;;20.00;99.90;;;;;;4979533;28;20554;-78
2021/09/17 10:06:32;;;;;;;11.60;7.80;;;19.90;99.90;;;;;;4986919;28;20449;-77
2021/09/17 10:09:01;;;;;;;7.57;6.77;;;19.90;99.90;;;;;;4983018;28;20930;-78
2021/09/17 10:11:28;;;;;;;7.90;6.10;;;20.00;99.90;;;;;;4983340;28;21011;-78
2021/09/17 10:13:57;;;;;;;7.73;6.30;;;20.10;99.90;;;;;;4983678;28;20510;-78
2021/09/17 10:16:25;;;;;;;7.67;6.87;;;20.30;99.90;;;;;;4982690;28;20492;-78
2021/09/17 10:18:53;;;;;;;8.57;6.83;;;20.40;99.90;;;;;;4982949;28;20524;-76
2021/09/17 10:21:52;;;;;;;8.47;7.30;;;20.40;99.90;;;;;;4983601;28;20476;-78
2021/09/17 10:24:43;;;;;;;10.63;7.00;;;20.40;99.90;;;;;;4977353;28;20478;-80
2021/09/17 10:27:20;;;;;;;8.07;7.27;;;20.40;99.90;;;;;;4976760;28;20480;-79
2021/09/17 10:29:56;;;;;;;9.33;7.30;;;20.50;99.90;;;;;;4978131;28;20455;-79
2021/09/17 10:32:51;;;;;;;9.23;6.70;;;20.50;99.90;;;;;;4977071;28;20925;-79
2021/09/17 10:35:21;;;;;;;9.53;7.90;;;20.50;99.90;;;;;;4977091;28;20461;-78
2021/09/17 10:38:04;;;;;;;7.67;6.80;;;20.40;99.90;;;;;;4976976;28;20540;-78
2021/09/17 10:40:44;;;;;;;8.63;7.40;;;20.50;99.90;;;;;;4976813;28;20452;-78
2021/09/17 10:43:22;;;;;;;7.10;6.20;;;20.60;99.90;;;;;;4975723;28;20553;-75
2021/09/17 10:45:51;;;;;;;7.23;6.53;;;20.80;99.90;;;;;;4975110;28;21121;-75
2021/09/17 10:48:22;;;;;;;8.00;6.20;;;21.00;99.90;;;;;;4975287;28;20485;-77
2021/09/17 10:50:55;;;;;;;7.73;6.83;;;21.00;99.90;;;;;;4976045;28;20462;-78
2021/09/17 10:54:03;;;;;;;9.27;6.13;;;21.00;99.90;;;;;;4975388;28;21019;-76
2021/09/17 10:57:03;;;;;;;8.73;5.87;;;20.80;99.90;;;;;;4975242;28;20489;-78
2021/09/17 10:59:46;;;;;;;7.50;5.90;;;20.80;99.90;;;;;;4975130;28;20454;-77
2021/09/17 11:02:15;;;;;;;7.20;5.90;;;20.80;99.90;;;;;;4974665;28;20488;-75
2021/09/17 11:04:44;;;;;;;6.20;5.40;;;20.70;99.90;;;;;;4974713;28;21050;-75
2021/09/17 11:07:34;;;;;;;6.50;5.67;;;20.60;99.90;;;;;;4974360;28;20537;-77
2021/09/17 11:10:01;;;;;;;5.80;5.20;;;20.40;99.90;;;;;;4974331;28;20486;-76
2021/09/17 11:12:32;;;;;;;6.93;5.93;;;20.20;99.90;;;;;;4975519;28;21027;-81
2021/09/17 11:15:10;;;;;;;5.90;5.13;;;20.10;99.90;;;;;;4975381;28;21092;-79
2021/09/17 11:17:43;;;;;;;9.07;5.50;;;20.20;99.90;;;;;;4975957;28;20537;-78
2021/09/17 11:20:13;;;;;;;5.20;4.77;;;20.20;99.90;;;;;;4976087;28;20444;-79
2021/09/17 11:22:50;;;;;;;5.73;5.23;;;20.20;99.90;;;;;;4975524;28;20811;-78
2021/09/17 11:25:21;;;;;;;6.37;5.47;;;20.20;99.90;;;;;;4974294;28;20458;-76
2021/09/17 11:27:50;;;;;;;8.70;5.90;;;20.20;99.90;;;;;;4974123;28;21028;-77
2021/09/17 11:30:17;;;;;;;7.00;5.50;;;20.20;99.90;;;;;;4974143;28;20476;-77
2021/09/17 11:32:44;;;;;;;5.70;5.07;;;20.30;99.90;;;;;;4973685;28;20489;-77
2021/09/17 11:35:12;;;;;;;5.20;4.70;;;20.40;99.90;;;;;;4974074;28;20539;-77
2021/09/17 11:37:39;;;;;;;7.17;5.87;;;20.40;99.90;;;;;;4973845;28;20449;-76
2021/09/17 11:40:08;;;;;;;6.90;5.70;;;20.20;99.90;;;;;;4974068;28;20534;-76
2021/09/17 11:42:36;;;;;;;7.20;4.47;;;20.20;99.90;;;;;;4973835;28;20462;-76
2021/09/17 11:45:13;;;;;;;5.60;5.07;;;20.30;99.90;;;;;;4973868;28;20556;-76
2021/09/17 11:47:45;;;;;;;4.47;4.07;;;20.20;99.90;;;;;;4973861;28;20452;-75
2021/09/17 11:50:14;;;;;;;5.30;4.80;;;20.10;99.90;;;;;;4973723;28;20453;-75
2021/09/17 11:52:43;;;;;;;6.33;5.50;;;20.20;99.90;;;;;;4972779;28;20494;-75
2021/09/17 11:55:11;;;;;;;4.47;4.07;;;20.30;99.90;;;;;;4973807;28;20461;-75
2021/09/17 11:57:41;;;;;;;4.57;4.03;;;20.20;99.90;;;;;;4973686;28;20456;-75
2021/09/17 12:00:10;;;;;;;5.33;4.77;;;20.20;99.90;;;;;;4973678;28;20815;-74
2021/09/17 12:02:39;;;;;;;5.10;4.57;;;20.30;99.90;;;;;;4973271;28;20453;-75
2021/09/17 12:05:09;;;;;;;7.10;6.40;;;20.30;99.90;;;;;;4973431;28;20456;-74
2021/09/17 12:07:37;;;;;;;5.27;4.70;;;20.40;99.90;;;;;;4973390;28;20457;-75
2021/09/17 12:10:13;;;;;;;5.93;4.47;;;20.50;99.90;;;;;;4973634;28;20484;-74
2021/09/17 12:12:41;;;;;;;4.87;4.30;;;20.70;99.90;;;;;;4973271;28;20487;-75
2021/09/17 12:15:09;;;;;;;4.73;4.10;;;20.90;99.90;;;;;;4973371;28;20449;-75
2021/09/17 12:17:52;;;;;;;3.87;3.37;;;21.00;99.70;;;;;;4973567;28;20457;-73
2021/09/17 12:20:18;;;;;;;3.87;3.20;;;20.90;97.60;;;;;;4973343;28;20958;-75
2021/09/17 12:22:55;;;;;;;4.07;3.60;;;21.00;98.90;;;;;;4973177;28;20472;-74
2021/09/17 12:25:27;;;;;;;4.50;4.10;;;21.10;99.30;;;;;;4973285;28;20448;-74
2021/09/17 12:27:59;;;;;;;4.87;4.37;;;21.20;99.60;;;;;;4973949;28;20958;-77
2021/09/17 12:30:30;;;;;;;4.77;4.27;;;21.20;99.90;;;;;;4975450;28;20811;-78
2021/09/17 12:33:16;;;;;;;4.13;3.73;;;21.20;99.90;;;;;;4974742;28;20855;-78
2021/09/17 12:35:45;;;;;;;3.83;3.53;;;21.20;99.50;;;;;;4973069;28;20460;-78
2021/09/17 12:38:13;;;;;;;3.70;3.40;;;21.20;97.60;;;;;;4973105;28;20449;-77
2021/09/17 12:40:41;;;;;;;3.37;3.07;;;21.30;97.80;;;;;;4973143;28;20539;-78
2021/09/17 12:43:10;;;;;;;3.37;3.07;;;21.20;98.00;;;;;;4973010;28;20472;-76
2021/09/17 12:45:40;;;;;;;10.40;7.80;;;21.10;97.00;;;;;;4973163;28;20453;-76
2021/09/17 12:48:09;;;;;;;4.43;4.03;;;21.00;96.30;;;;;;4973124;28;20456;-76
2021/09/17 12:50:38;;;;;;;5.30;3.97;;;20.90;98.20;;;;;;4973105;28;20965;-77
2021/09/17 12:53:10;;;;;;;4.40;4.00;;;21.00;98.20;;;;;;4972943;28;20535;-77
2021/09/17 12:55:39;;;;;;;4.07;3.63;;;21.10;94.80;;;;;;4973102;28;20481;-77